Oriskany, New York
Current Conditions -  °F | °C
As of 2:53 AM on Thursday 23 Oct 2014 (Local Time) from KRME Reporting Station
Clear Clear  
Wind Chill: 41°   Ceiling: Unl
Heat Index: 46°   Visibility: 10mi
Dew Point: 38°   Wind: 9mph
Humidity: 73%   Direction: 330°NNW
Pressure: 29.99"   Gusts: NA
Location:  43.16°N, 75.33°W
Report Text: KRME 230653Z AUTO 33008KT 10SM CLR 08/03 A2999 RMK AO2 SLP155 T00780033
Loading
Personal Weather Stations






























Interactive Weather Map
Tropical Storm Tracking
New forecast layout! Learn more

10-Day Weather Forecast

Advertisements
Track Severe Weather on mobile